createdAt,value
2023-08-20T00:01:29.327Z,20.91
2023-08-20T00:04:33.536Z,20.91
2023-08-20T00:07:36.890Z,20.88
2023-08-20T00:10:39.717Z,20.87
2023-08-20T00:13:42.413Z,20.82
2023-08-20T00:16:45.726Z,20.78
2023-08-20T00:19:49.228Z,20.75
2023-08-20T00:22:52.488Z,20.68
2023-08-20T00:25:55.406Z,20.65
2023-08-20T00:28:57.959Z,20.68
2023-08-20T00:32:00.497Z,20.61
2023-08-20T00:35:08.560Z,20.56
2023-08-20T00:38:12.430Z,20.53
2023-08-20T00:41:15.026Z,20.50
2023-08-20T00:44:17.515Z,20.46
2023-08-20T00:47:20.860Z,20.44
2023-08-20T00:50:23.519Z,20.41
2023-08-20T00:53:28.429Z,20.48
2023-08-20T00:56:31.928Z,20.45
2023-08-20T00:59:35.253Z,20.48
2023-08-20T01:02:39.232Z,20.39
2023-08-20T01:05:51.777Z,20.37
2023-08-20T01:08:59.864Z,20.37
2023-08-20T01:12:04.479Z,20.37
2023-08-20T01:15:09.672Z,20.39
2023-08-20T01:18:12.746Z,20.34
2023-08-20T01:21:36.749Z,20.51
2023-08-20T01:25:05.315Z,20.60
2023-08-20T01:28:22.856Z,20.64
2023-08-20T01:31:27.802Z,20.62
2023-08-20T01:34:30.441Z,20.58
2023-08-20T01:37:33.290Z,20.55
2023-08-20T01:40:36.282Z,20.58
2023-08-20T01:43:38.887Z,20.54
2023-08-20T01:46:41.601Z,20.43
2023-08-20T01:49:44.326Z,20.42
2023-08-20T01:52:46.921Z,20.39
2023-08-20T01:55:49.424Z,20.50
2023-08-20T01:58:52.024Z,20.54
2023-08-20T02:01:54.670Z,20.56
2023-08-20T02:04:57.479Z,20.56
2023-08-20T02:07:59.998Z,20.53
2023-08-20T02:11:06.074Z,20.48
2023-08-20T02:14:08.647Z,20.36
2023-08-20T02:17:13.456Z,20.27
2023-08-20T02:20:16.054Z,20.20
2023-08-20T02:23:18.532Z,20.21
2023-08-20T02:26:21.029Z,20.25
2023-08-20T02:29:23.600Z,20.17
2023-08-20T02:32:26.182Z,20.11
2023-08-20T02:35:28.688Z,20.00
2023-08-20T02:38:31.541Z,19.90
2023-08-20T02:41:34.997Z,19.86
2023-08-20T02:44:38.649Z,19.88
2023-08-20T02:47:41.203Z,19.93
2023-08-20T02:50:43.737Z,19.95
2023-08-20T02:53:46.257Z,19.93
2023-08-20T02:56:49.468Z,19.88
2023-08-20T02:59:52.061Z,19.83
2023-08-20T03:02:54.713Z,19.79
2023-08-20T03:05:57.284Z,19.81
2023-08-20T03:09:00.134Z,19.81
2023-08-20T03:12:02.785Z,19.81
2023-08-20T03:15:06.646Z,19.78
2023-08-20T03:18:09.341Z,19.78
2023-08-20T03:21:12.250Z,19.68
2023-08-20T03:24:14.699Z,19.66
2023-08-20T03:27:17.866Z,19.75
2023-08-20T03:30:20.592Z,19.77
2023-08-20T03:33:23.136Z,19.75
2023-08-20T03:36:25.688Z,19.77
2023-08-20T03:39:28.252Z,19.87
2023-08-20T03:42:30.765Z,19.87
2023-08-20T03:45:33.397Z,19.94
2023-08-20T03:48:35.965Z,19.92
2023-08-20T03:51:38.542Z,19.96
2023-08-20T03:54:41.076Z,19.99
2023-08-20T03:57:43.781Z,19.90
2023-08-20T04:00:46.344Z,19.96
2023-08-20T04:03:49.417Z,19.90
2023-08-20T04:06:52.301Z,19.94
2023-08-20T04:09:54.808Z,20.00
2023-08-20T04:12:57.260Z,20.02
2023-08-20T04:16:00.076Z,19.99
2023-08-20T04:19:02.854Z,20.01
2023-08-20T04:22:05.526Z,19.99
2023-08-20T04:25:08.884Z,20.03
2023-08-20T04:28:12.856Z,19.98
2023-08-20T04:31:15.503Z,20.01
2023-08-20T04:34:25.278Z,20.08
2023-08-20T04:37:29.509Z,20.10
2023-08-20T04:40:33.763Z,20.13
2023-08-20T04:43:36.305Z,20.19
2023-08-20T04:46:39.073Z,20.27
2023-08-20T04:49:41.639Z,20.46
2023-08-20T04:52:44.267Z,20.54
2023-08-20T04:55:47.172Z,20.58
2023-08-20T04:58:50.007Z,20.62
2023-08-20T05:02:12.519Z,20.77
2023-08-20T05:05:20.890Z,20.93
2023-08-20T05:08:25.541Z,20.98
2023-08-20T05:11:29.553Z,21.07
2023-08-20T05:14:32.535Z,21.09
2023-08-20T05:17:35.177Z,21.17
2023-08-20T05:20:38.709Z,21.24
2023-08-20T05:23:41.835Z,21.30
2023-08-20T05:26:44.447Z,21.37
2023-08-20T05:29:47.818Z,21.49
2023-08-20T05:32:51.308Z,21.57
2023-08-20T05:35:54.324Z,21.60
2023-08-20T05:38:58.247Z,21.71
2023-08-20T05:42:01.214Z,21.80
2023-08-20T05:45:04.009Z,21.85
2023-08-20T05:48:06.921Z,21.96
2023-08-20T05:51:09.548Z,21.98
2023-08-20T05:54:14.360Z,22.02
2023-08-20T05:57:16.914Z,22.16
2023-08-20T06:00:20.543Z,22.24
2023-08-20T06:03:23.743Z,22.31
2023-08-20T06:06:27.365Z,22.43
2023-08-20T06:09:30.442Z,22.47
2023-08-20T06:12:33.304Z,22.62
2023-08-20T06:15:36.190Z,22.66
2023-08-20T06:18:39.019Z,22.68
2023-08-20T06:21:41.603Z,22.89
2023-08-20T06:24:44.176Z,22.99
2023-08-20T06:27:46.908Z,23.04
2023-08-20T06:30:49.532Z,23.11
2023-08-20T06:33:52.026Z,23.19
2023-08-20T06:36:54.568Z,23.19
2023-08-20T06:39:57.029Z,23.22
2023-08-20T06:42:59.614Z,23.17
2023-08-20T06:46:02.232Z,23.23
2023-08-20T06:49:04.821Z,23.34
2023-08-20T06:52:07.430Z,23.40
2023-08-20T06:55:10.053Z,23.56
2023-08-20T06:58:12.598Z,23.84
2023-08-20T07:01:15.213Z,24.01
2023-08-20T07:04:17.718Z,23.98
2023-08-20T07:07:20.204Z,24.08
2023-08-20T07:10:22.715Z,24.14
2023-08-20T07:13:25.260Z,24.21
2023-08-20T07:16:28.092Z,24.34
2023-08-20T07:19:30.610Z,24.42
2023-08-20T07:22:35.398Z,24.52
2023-08-20T07:25:42.263Z,24.68
2023-08-20T07:29:00.082Z,24.92
2023-08-20T07:32:04.488Z,25.08
2023-08-20T07:35:11.284Z,25.13
2023-08-20T07:38:14.338Z,25.23
2023-08-20T07:41:17.013Z,25.34
2023-08-20T07:44:19.487Z,25.45
2023-08-20T07:47:22.091Z,25.72
2023-08-20T07:50:24.816Z,25.77
2023-08-20T07:53:27.796Z,25.89
2023-08-20T07:56:30.261Z,26.08
2023-08-20T07:59:32.839Z,26.16
2023-08-20T08:02:35.421Z,26.25
2023-08-20T08:05:38.316Z,26.30
2023-08-20T08:08:44.075Z,26.39
2023-08-20T08:11:46.600Z,26.44
2023-08-20T08:14:49.099Z,26.54
2023-08-20T08:17:51.626Z,26.64
2023-08-20T08:20:55.390Z,26.79
2023-08-20T08:23:57.913Z,26.98
2023-08-20T08:27:00.423Z,27.15
2023-08-20T08:30:03.091Z,27.32
2023-08-20T08:33:05.925Z,27.39
2023-08-20T08:36:08.399Z,27.44
2023-08-20T08:39:10.856Z,27.54
2023-08-20T08:42:15.319Z,27.51
2023-08-20T08:45:21.076Z,27.55
2023-08-20T08:48:23.847Z,27.58
2023-08-20T08:51:27.793Z,27.94
2023-08-20T08:54:30.947Z,28.03
2023-08-20T08:57:33.846Z,28.04
2023-08-20T09:00:36.678Z,28.18
2023-08-20T09:03:39.452Z,28.23
2023-08-20T09:06:49.716Z,28.17
2023-08-20T09:09:52.197Z,28.24
2023-08-20T09:12:57.851Z,28.28
2023-08-20T09:16:01.031Z,28.33
2023-08-20T09:19:04.337Z,28.30
2023-08-20T09:22:06.893Z,28.52
2023-08-20T09:25:18.034Z,28.58
2023-08-20T09:28:20.596Z,28.61
2023-08-20T09:31:39.976Z,28.65
2023-08-20T09:34:43.015Z,28.82
2023-08-20T09:37:45.522Z,29.12
2023-08-20T09:40:50.956Z,29.15
2023-08-20T09:43:58.019Z,29.24
2023-08-20T09:47:01.371Z,29.51
2023-08-20T09:50:06.978Z,29.54
2023-08-20T09:53:22.685Z,29.58
2023-08-20T09:56:39.467Z,29.75
2023-08-20T09:59:43.688Z,29.75
2023-08-20T10:02:46.198Z,29.70
2023-08-20T10:05:51.228Z,29.73
2023-08-20T10:08:54.997Z,29.66
2023-08-20T10:11:57.695Z,29.76
2023-08-20T10:15:01.601Z,30.01
2023-08-20T10:18:04.518Z,30.20
2023-08-20T10:21:10.466Z,30.17
2023-08-20T10:24:19.548Z,30.27
2023-08-20T10:27:29.791Z,30.45
2023-08-20T10:30:32.234Z,30.67
2023-08-20T10:33:36.672Z,30.78
2023-08-20T10:36:43.484Z,30.89
2023-08-20T10:39:55.004Z,30.98
2023-08-20T10:43:02.849Z,31.07
2023-08-20T10:46:10.677Z,31.03
2023-08-20T10:49:18.678Z,31.12
2023-08-20T10:52:25.097Z,31.10
2023-08-20T10:55:28.221Z,31.21
2023-08-20T10:58:32.178Z,31.19
2023-08-20T11:01:35.820Z,31.16
2023-08-20T11:04:39.771Z,31.50
2023-08-20T11:07:42.396Z,31.58
2023-08-20T11:10:46.163Z,31.67
2023-08-20T11:13:48.674Z,31.78
2023-08-20T11:16:52.323Z,31.80
2023-08-20T11:20:07.622Z,31.77
2023-08-20T11:23:13.326Z,32.14
2023-08-20T11:26:16.230Z,31.97
2023-08-20T11:29:21.485Z,31.96
2023-08-20T11:32:27.240Z,32.35
2023-08-20T11:35:30.180Z,32.29
2023-08-20T11:38:33.019Z,32.39
2023-08-20T11:41:41.032Z,32.72
2023-08-20T11:44:45.813Z,32.55
2023-08-20T11:47:48.391Z,32.69
2023-08-20T11:50:51.954Z,33.21
2023-08-20T11:53:54.592Z,33.50
2023-08-20T11:57:04.576Z,33.70
2023-08-20T12:00:14.557Z,33.97
2023-08-20T12:03:19.285Z,33.98
2023-08-20T12:06:26.296Z,33.87
2023-08-20T12:09:28.936Z,34.29
2023-08-20T12:12:31.404Z,34.57
2023-08-20T12:15:33.848Z,35.47
2023-08-20T12:18:36.705Z,35.36
2023-08-20T12:21:39.333Z,35.84
2023-08-20T12:24:42.260Z,35.70
2023-08-20T12:27:44.774Z,36.06
2023-08-20T12:30:47.482Z,37.16
2023-08-20T12:33:50.092Z,37.73
2023-08-20T12:36:52.629Z,37.48
2023-08-20T12:39:55.812Z,38.06
2023-08-20T12:42:58.366Z,37.99
2023-08-20T12:46:00.945Z,37.72
2023-08-20T12:49:03.683Z,38.85
2023-08-20T12:52:06.433Z,38.83
2023-08-20T12:55:09.400Z,37.87
2023-08-20T12:58:11.889Z,38.20
2023-08-20T13:01:14.438Z,37.37
2023-08-20T13:04:17.340Z,37.59
2023-08-20T13:07:20.247Z,38.62
2023-08-20T13:10:23.430Z,37.98
2023-08-20T13:13:27.923Z,38.07
2023-08-20T13:16:30.747Z,38.49
2023-08-20T13:19:33.725Z,37.82
2023-08-20T13:22:37.082Z,38.41
2023-08-20T13:25:39.626Z,39.66
2023-08-20T13:28:42.128Z,38.65
2023-08-20T13:31:45.026Z,39.00
2023-08-20T13:34:47.506Z,39.16
2023-08-20T13:37:50.033Z,39.22
2023-08-20T13:40:52.620Z,38.42
2023-08-20T13:43:55.150Z,38.52
2023-08-20T13:46:57.648Z,37.96
2023-08-20T13:50:00.441Z,38.82
2023-08-20T13:53:03.875Z,39.36
2023-08-20T13:56:06.370Z,38.80
2023-08-20T13:59:10.833Z,38.97
2023-08-20T14:02:13.528Z,38.91
2023-08-20T14:05:16.052Z,38.44
2023-08-20T14:08:18.555Z,39.25
2023-08-20T14:11:21.608Z,38.55
2023-08-20T14:14:24.274Z,38.84
2023-08-20T14:17:27.482Z,38.86
2023-08-20T14:20:30.126Z,38.99
2023-08-20T14:23:32.663Z,38.90
2023-08-20T14:26:35.152Z,39.10
2023-08-20T14:29:37.758Z,39.59
2023-08-20T14:32:41.277Z,38.78
2023-08-20T14:35:44.254Z,39.69
2023-08-20T14:38:46.742Z,40.35
2023-08-20T14:41:49.234Z,39.81
2023-08-20T14:44:51.763Z,40.08
2023-08-20T14:47:54.414Z,39.78
2023-08-20T14:50:57.473Z,39.21
2023-08-20T14:54:00.041Z,40.19
2023-08-20T14:57:02.623Z,39.85
2023-08-20T15:00:09.059Z,40.01
2023-08-20T15:03:11.599Z,40.23
2023-08-20T15:06:15.650Z,39.50
2023-08-20T15:09:18.157Z,39.76
2023-08-20T15:12:20.720Z,39.93
2023-08-20T15:15:25.580Z,38.71
2023-08-20T15:18:28.009Z,38.87
2023-08-20T15:21:30.802Z,38.85
2023-08-20T15:24:33.440Z,38.52
2023-08-20T15:27:36.391Z,39.36
2023-08-20T15:30:39.218Z,39.01
2023-08-20T15:33:41.677Z,39.39
2023-08-20T15:36:44.359Z,38.83
2023-08-20T15:39:47.050Z,38.71
2023-08-20T15:42:49.585Z,39.11
2023-08-20T15:45:52.119Z,38.75
2023-08-20T15:48:54.642Z,39.00
2023-08-20T15:51:57.180Z,38.60
2023-08-20T15:55:00.263Z,38.38
2023-08-20T15:58:02.834Z,39.30
2023-08-20T16:01:05.488Z,39.17
2023-08-20T16:04:08.865Z,38.54
2023-08-20T16:07:11.337Z,38.60
2023-08-20T16:10:13.893Z,38.61
2023-08-20T16:13:16.353Z,38.24
2023-08-20T16:16:19.874Z,38.34
2023-08-20T16:19:22.739Z,38.47
2023-08-20T16:22:25.288Z,38.31
2023-08-20T16:25:27.796Z,38.67
2023-08-20T16:28:30.870Z,37.61
2023-08-20T16:31:33.537Z,37.74
2023-08-20T16:34:36.228Z,37.46
2023-08-20T16:37:39.061Z,37.56
2023-08-20T16:40:41.915Z,37.27
2023-08-20T16:43:44.375Z,37.12
2023-08-20T16:46:47.970Z,36.98
2023-08-20T16:49:50.436Z,36.18
2023-08-20T16:52:53.201Z,35.48
2023-08-20T16:55:56.306Z,34.47
2023-08-20T16:58:58.816Z,34.11
2023-08-20T17:02:01.894Z,33.35
2023-08-20T17:05:05.130Z,33.06
2023-08-20T17:08:07.696Z,32.65
2023-08-20T17:11:11.431Z,32.33
2023-08-20T17:14:14.524Z,32.14
2023-08-20T17:17:18.731Z,31.91
2023-08-20T17:20:21.404Z,31.83
2023-08-20T17:23:24.196Z,31.56
2023-08-20T17:26:26.791Z,31.28
2023-08-20T17:29:29.403Z,31.04
2023-08-20T17:32:31.896Z,30.95
2023-08-20T17:35:34.431Z,30.86
2023-08-20T17:38:37.075Z,30.70
2023-08-20T17:41:39.619Z,30.57
2023-08-20T17:44:42.072Z,30.42
2023-08-20T17:47:44.797Z,30.28
2023-08-20T17:50:48.153Z,30.21
2023-08-20T17:53:50.700Z,29.99
2023-08-20T17:56:53.217Z,29.79
2023-08-20T17:59:55.796Z,29.71
2023-08-20T18:02:58.724Z,29.55
2023-08-20T18:06:02.712Z,29.41
2023-08-20T18:09:05.234Z,29.29
2023-08-20T18:12:07.853Z,29.11
2023-08-20T18:15:10.654Z,28.80
2023-08-20T18:18:13.316Z,28.54
2023-08-20T18:21:15.839Z,28.31
2023-08-20T18:24:18.888Z,28.15
2023-08-20T18:27:21.541Z,27.99
2023-08-20T18:30:24.126Z,27.80
2023-08-20T18:33:28.349Z,27.67
2023-08-20T18:36:32.731Z,27.56
2023-08-20T18:39:35.274Z,27.47
2023-08-20T18:42:39.314Z,27.44
2023-08-20T18:45:42.007Z,27.30
2023-08-20T18:48:44.478Z,27.32
2023-08-20T18:51:47.188Z,27.22
2023-08-20T18:54:49.808Z,27.12
2023-08-20T18:57:52.655Z,27.00
2023-08-20T19:00:55.325Z,26.83
2023-08-20T19:03:58.635Z,26.77
2023-08-20T19:07:02.178Z,26.70
2023-08-20T19:10:06.225Z,26.62
2023-08-20T19:13:09.206Z,26.50
2023-08-20T19:16:11.828Z,26.41
2023-08-20T19:19:17.427Z,26.33
2023-08-20T19:22:19.932Z,26.24
2023-08-20T19:25:22.929Z,26.19
2023-08-20T19:28:25.539Z,26.11
2023-08-20T19:31:29.040Z,26.07
2023-08-20T19:34:32.379Z,26.00
2023-08-20T19:37:34.862Z,25.91
2023-08-20T19:40:38.839Z,25.88
2023-08-20T19:43:41.884Z,25.77
2023-08-20T19:46:44.468Z,25.65
2023-08-20T19:49:48.384Z,25.57
2023-08-20T19:52:51.300Z,25.50
2023-08-20T19:55:58.959Z,25.46
2023-08-20T19:59:01.518Z,25.37
2023-08-20T20:02:04.487Z,25.33
2023-08-20T20:05:09.201Z,25.31
2023-08-20T20:08:11.740Z,25.18
2023-08-20T20:11:14.328Z,25.16
2023-08-20T20:14:16.972Z,25.14
2023-08-20T20:17:19.603Z,25.07
2023-08-20T20:20:22.870Z,25.00
2023-08-20T20:23:25.422Z,24.95
2023-08-20T20:26:28.255Z,24.87
2023-08-20T20:29:32.646Z,24.76
2023-08-20T20:32:37.081Z,24.74
2023-08-20T20:35:39.941Z,24.64
2023-08-20T20:38:42.552Z,24.59
2023-08-20T20:41:45.020Z,24.55
2023-08-20T20:44:48.253Z,24.48
2023-08-20T20:47:50.733Z,24.42
2023-08-20T20:50:53.658Z,24.38
2023-08-20T20:53:56.271Z,24.30
2023-08-20T20:56:58.793Z,24.27
2023-08-20T21:00:01.264Z,24.23
2023-08-20T21:03:06.050Z,24.14
2023-08-20T21:06:08.642Z,24.10
2023-08-20T21:09:11.272Z,24.05
2023-08-20T21:12:13.744Z,24.05
2023-08-20T21:15:16.156Z,24.02
2023-08-20T21:18:18.651Z,23.95
2023-08-20T21:21:21.189Z,23.86
2023-08-20T21:24:23.699Z,23.78
2023-08-20T21:27:26.250Z,23.74
2023-08-20T21:30:28.768Z,23.68
2023-08-20T21:33:31.382Z,23.61
2023-08-20T21:36:33.895Z,23.56
2023-08-20T21:39:36.414Z,23.55
2023-08-20T21:42:39.308Z,23.51
2023-08-20T21:45:42.070Z,23.44
2023-08-20T21:48:44.645Z,23.44
2023-08-20T21:51:47.149Z,23.38
2023-08-20T21:54:49.879Z,23.34
2023-08-20T21:57:52.407Z,23.36
2023-08-20T22:00:54.955Z,23.40
2023-08-20T22:03:57.474Z,23.34
2023-08-20T22:07:00.550Z,23.31
2023-08-20T22:10:03.120Z,23.26
2023-08-20T22:13:05.680Z,23.21
2023-08-20T22:16:08.299Z,23.21
2023-08-20T22:19:11.314Z,23.14
2023-08-20T22:22:13.795Z,23.07
2023-08-20T22:25:16.288Z,23.06
2023-08-20T22:28:18.819Z,23.03
2023-08-20T22:31:22.448Z,22.96
2023-08-20T22:34:24.939Z,22.95
2023-08-20T22:37:27.562Z,22.91
2023-08-20T22:40:30.658Z,22.88
2023-08-20T22:43:33.297Z,22.87
2023-08-20T22:46:35.903Z,22.81
2023-08-20T22:49:38.457Z,22.74
2023-08-20T22:52:41.056Z,22.76
2023-08-20T22:55:43.631Z,22.79
2023-08-20T22:58:46.348Z,22.77
2023-08-20T23:01:51.233Z,22.74
2023-08-20T23:04:53.890Z,22.69
2023-08-20T23:07:56.382Z,22.63
2023-08-20T23:10:59.020Z,22.62
2023-08-20T23:14:01.521Z,22.61
2023-08-20T23:17:04.182Z,22.60
2023-08-20T23:20:08.217Z,22.57
2023-08-20T23:23:10.746Z,22.58
2023-08-20T23:26:13.287Z,22.65
2023-08-20T23:29:15.876Z,22.63
2023-08-20T23:32:18.395Z,22.59
2023-08-20T23:35:20.841Z,22.52
2023-08-20T23:38:25.519Z,22.44
2023-08-20T23:41:29.036Z,22.42
2023-08-20T23:44:31.902Z,22.43
2023-08-20T23:47:34.476Z,22.36
2023-08-20T23:50:36.983Z,22.31
2023-08-20T23:53:39.562Z,22.31
2023-08-20T23:56:42.298Z,22.29
2023-08-20T23:59:44.858Z,22.27
